sensor_id;sensor_type;location;lat;lon;timestamp;P1;durP1;ratioP1;P2;durP2;ratioP2
20040;SDS011;10181;48.072;9.884;2023-07-29T00:01:30;4.20;;;3.37;;
20040;SDS011;10181;48.072;9.884;2023-07-29T00:03:56;2.90;;;2.70;;
20040;SDS011;10181;48.072;9.884;2023-07-29T00:06:21;3.20;;;3.00;;
20040;SDS011;10181;48.072;9.884;2023-07-29T00:08:47;3.37;;;3.07;;
20040;SDS011;10181;48.072;9.884;2023-07-29T00:11:13;3.10;;;2.80;;
20040;SDS011;10181;48.072;9.884;2023-07-29T00:13:39;3.10;;;2.90;;
20040;SDS011;10181;48.072;9.884;2023-07-29T00:16:04;2.97;;;2.77;;
20040;SDS011;10181;48.072;9.884;2023-07-29T00:18:31;3.00;;;2.80;;
20040;SDS011;10181;48.072;9.884;2023-07-29T00:20:57;2.47;;;2.37;;
20040;SDS011;10181;48.072;9.884;2023-07-29T00:23:22;2.53;;;2.40;;
20040;SDS011;10181;48.072;9.884;2023-07-29T00:25:48;2.60;;;2.40;;
20040;SDS011;10181;48.072;9.884;2023-07-29T00:28:14;2.70;;;2.53;;
20040;SDS011;10181;48.072;9.884;2023-07-29T00:30:39;3.63;;;3.43;;
20040;SDS011;10181;48.072;9.884;2023-07-29T00:33:05;3.43;;;3.23;;
20040;SDS011;10181;48.072;9.884;2023-07-29T00:35:30;3.10;;;2.90;;
20040;SDS011;10181;48.072;9.884;2023-07-29T00:37:56;3.50;;;2.77;;
20040;SDS011;10181;48.072;9.884;2023-07-29T00:40:22;3.47;;;3.20;;
20040;SDS011;10181;48.072;9.884;2023-07-29T00:42:48;3.30;;;3.10;;
20040;SDS011;10181;48.072;9.884;2023-07-29T00:45:15;3.43;;;3.17;;
20040;SDS011;10181;48.072;9.884;2023-07-29T00:47:41;3.70;;;3.50;;
20040;SDS011;10181;48.072;9.884;2023-07-29T00:50:07;3.27;;;3.03;;
20040;SDS011;10181;48.072;9.884;2023-07-29T00:52:35;3.90;;;3.57;;
20040;SDS011;10181;48.072;9.884;2023-07-29T00:55:01;3.63;;;3.33;;
20040;SDS011;10181;48.072;9.884;2023-07-29T00:57:26;4.43;;;3.43;;
20040;SDS011;10181;48.072;9.884;2023-07-29T00:59:54;3.40;;;3.20;;
20040;SDS011;10181;48.072;9.884;2023-07-29T01:02:21;4.40;;;4.10;;
20040;SDS011;10181;48.072;9.884;2023-07-29T01:04:51;3.03;;;2.83;;
20040;SDS011;10181;48.072;9.884;2023-07-29T01:10:06;4.03;;;3.73;;
20040;SDS011;10181;48.072;9.884;2023-07-29T01:12:42;3.77;;;3.47;;
20040;SDS011;10181;48.072;9.884;2023-07-29T01:15:18;3.57;;;3.27;;
20040;SDS011;10181;48.072;9.884;2023-07-29T01:18:40;3.63;;;3.43;;
20040;SDS011;10181;48.072;9.884;2023-07-29T01:21:04;4.07;;;3.77;;
20040;SDS011;10181;48.072;9.884;2023-07-29T01:23:34;3.07;;;2.87;;
20040;SDS011;10181;48.072;9.884;2023-07-29T01:26:00;3.33;;;3.13;;
20040;SDS011;10181;48.072;9.884;2023-07-29T01:28:27;3.33;;;3.13;;
20040;SDS011;10181;48.072;9.884;2023-07-29T01:30:57;3.60;;;3.40;;
20040;SDS011;10181;48.072;9.884;2023-07-29T01:33:30;3.20;;;3.00;;
20040;SDS011;10181;48.072;9.884;2023-07-29T01:36:03;3.60;;;3.30;;
20040;SDS011;10181;48.072;9.884;2023-07-29T01:38:38;3.70;;;3.10;;
20040;SDS011;10181;48.072;9.884;2023-07-29T01:41:07;3.60;;;3.30;;
20040;SDS011;10181;48.072;9.884;2023-07-29T01:43:33;2.90;;;2.70;;
20040;SDS011;10181;48.072;9.884;2023-07-29T01:46:04;3.03;;;2.73;;
20040;SDS011;10181;48.072;9.884;2023-07-29T01:48:30;3.00;;;2.80;;
20040;SDS011;10181;48.072;9.884;2023-07-29T01:50:56;3.00;;;2.80;;
20040;SDS011;10181;48.072;9.884;2023-07-29T01:53:22;2.60;;;2.50;;
20040;SDS011;10181;48.072;9.884;2023-07-29T01:55:48;2.50;;;2.40;;
20040;SDS011;10181;48.072;9.884;2023-07-29T01:58:14;2.50;;;2.40;;
20040;SDS011;10181;48.072;9.884;2023-07-29T02:00:40;2.77;;;2.67;;
20040;SDS011;10181;48.072;9.884;2023-07-29T02:03:05;3.13;;;2.93;;
20040;SDS011;10181;48.072;9.884;2023-07-29T02:05:31;2.67;;;2.57;;
20040;SDS011;10181;48.072;9.884;2023-07-29T02:07:57;2.73;;;2.53;;
20040;SDS011;10181;48.072;9.884;2023-07-29T02:10:22;2.70;;;2.60;;
20040;SDS011;10181;48.072;9.884;2023-07-29T02:12:48;2.80;;;2.60;;
20040;SDS011;10181;48.072;9.884;2023-07-29T02:15:13;2.67;;;2.50;;
20040;SDS011;10181;48.072;9.884;2023-07-29T02:17:40;4.27;;;3.10;;
20040;SDS011;10181;48.072;9.884;2023-07-29T02:20:06;3.10;;;2.90;;
20040;SDS011;10181;48.072;9.884;2023-07-29T02:22:33;3.00;;;2.80;;
20040;SDS011;10181;48.072;9.884;2023-07-29T02:24:59;3.40;;;3.10;;
20040;SDS011;10181;48.072;9.884;2023-07-29T02:27:24;2.50;;;2.40;;
20040;SDS011;10181;48.072;9.884;2023-07-29T02:29:52;2.57;;;2.37;;
20040;SDS011;10181;48.072;9.884;2023-07-29T02:32:18;2.53;;;2.43;;
20040;SDS011;10181;48.072;9.884;2023-07-29T02:34:44;4.03;;;3.37;;
20040;SDS011;10181;48.072;9.884;2023-07-29T02:37:09;3.47;;;3.27;;
20040;SDS011;10181;48.072;9.884;2023-07-29T02:39:35;2.60;;;2.50;;
20040;SDS011;10181;48.072;9.884;2023-07-29T02:42:01;2.97;;;2.77;;
20040;SDS011;10181;48.072;9.884;2023-07-29T02:44:27;3.10;;;2.80;;
20040;SDS011;10181;48.072;9.884;2023-07-29T02:46:53;3.80;;;3.00;;
20040;SDS011;10181;48.072;9.884;2023-07-29T02:49:20;2.83;;;2.67;;
20040;SDS011;10181;48.072;9.884;2023-07-29T02:51:46;2.70;;;2.50;;
20040;SDS011;10181;48.072;9.884;2023-07-29T02:54:12;2.27;;;2.17;;
20040;SDS011;10181;48.072;9.884;2023-07-29T02:56:37;2.57;;;2.47;;
20040;SDS011;10181;48.072;9.884;2023-07-29T02:59:03;2.30;;;2.20;;
20040;SDS011;10181;48.072;9.884;2023-07-29T03:01:30;2.40;;;2.30;;
20040;SDS011;10181;48.072;9.884;2023-07-29T03:03:56;2.47;;;2.37;;
20040;SDS011;10181;48.072;9.884;2023-07-29T03:06:21;2.30;;;2.20;;
20040;SDS011;10181;48.072;9.884;2023-07-29T03:08:47;1.90;;;1.80;;
20040;SDS011;10181;48.072;9.884;2023-07-29T03:11:13;3.77;;;2.70;;
20040;SDS011;10181;48.072;9.884;2023-07-29T03:13:40;2.60;;;2.40;;
20040;SDS011;10181;48.072;9.884;2023-07-29T03:18:40;2.50;;;2.30;;
20040;SDS011;10181;48.072;9.884;2023-07-29T03:21:06;2.47;;;2.30;;
20040;SDS011;10181;48.072;9.884;2023-07-29T03:23:32;3.17;;;2.97;;
20040;SDS011;10181;48.072;9.884;2023-07-29T03:25:59;2.40;;;2.30;;
20040;SDS011;10181;48.072;9.884;2023-07-29T03:28:26;2.53;;;2.43;;
20040;SDS011;10181;48.072;9.884;2023-07-29T03:30:53;3.80;;;3.00;;
20040;SDS011;10181;48.072;9.884;2023-07-29T03:33:19;3.33;;;3.03;;
20040;SDS011;10181;48.072;9.884;2023-07-29T03:35:45;2.30;;;2.20;;
20040;SDS011;10181;48.072;9.884;2023-07-29T03:38:11;1.90;;;1.80;;
20040;SDS011;10181;48.072;9.884;2023-07-29T03:40:40;2.40;;;2.30;;
20040;SDS011;10181;48.072;9.884;2023-07-29T03:43:06;2.10;;;2.00;;
20040;SDS011;10181;48.072;9.884;2023-07-29T03:45:33;2.40;;;2.30;;
20040;SDS011;10181;48.072;9.884;2023-07-29T03:47:59;3.10;;;2.87;;
20040;SDS011;10181;48.072;9.884;2023-07-29T03:50:25;3.20;;;3.00;;
20040;SDS011;10181;48.072;9.884;2023-07-29T03:52:51;3.73;;;3.30;;
20040;SDS011;10181;48.072;9.884;2023-07-29T03:55:16;3.50;;;3.20;;
20040;SDS011;10181;48.072;9.884;2023-07-29T03:57:42;2.90;;;2.70;;
20040;SDS011;10181;48.072;9.884;2023-07-29T04:00:08;3.50;;;3.30;;
20040;SDS011;10181;48.072;9.884;2023-07-29T04:02:34;2.80;;;2.60;;
20040;SDS011;10181;48.072;9.884;2023-07-29T04:05:02;3.30;;;3.10;;
20040;SDS011;10181;48.072;9.884;2023-07-29T04:07:29;3.50;;;3.20;;
20040;SDS011;10181;48.072;9.884;2023-07-29T04:09:55;3.30;;;3.10;;
20040;SDS011;10181;48.072;9.884;2023-07-29T04:12:21;3.23;;;3.03;;
20040;SDS011;10181;48.072;9.884;2023-07-29T04:14:47;3.17;;;2.97;;
20040;SDS011;10181;48.072;9.884;2023-07-29T04:17:13;3.43;;;3.20;;
20040;SDS011;10181;48.072;9.884;2023-07-29T04:19:39;3.70;;;3.40;;
20040;SDS011;10181;48.072;9.884;2023-07-29T04:22:05;4.00;;;3.67;;
20040;SDS011;10181;48.072;9.884;2023-07-29T04:24:30;4.00;;;3.67;;
20040;SDS011;10181;48.072;9.884;2023-07-29T04:26:56;3.00;;;2.80;;
20040;SDS011;10181;48.072;9.884;2023-07-29T04:29:21;3.53;;;2.97;;
20040;SDS011;10181;48.072;9.884;2023-07-29T04:31:50;3.63;;;2.97;;
20040;SDS011;10181;48.072;9.884;2023-07-29T04:34:17;3.60;;;3.30;;
20040;SDS011;10181;48.072;9.884;2023-07-29T04:36:43;3.20;;;2.80;;
20040;SDS011;10181;48.072;9.884;2023-07-29T04:39:08;3.40;;;3.10;;
20040;SDS011;10181;48.072;9.884;2023-07-29T04:41:34;3.30;;;3.10;;
20040;SDS011;10181;48.072;9.884;2023-07-29T04:44:00;3.07;;;2.87;;
20040;SDS011;10181;48.072;9.884;2023-07-29T04:46:25;2.67;;;2.40;;
20040;SDS011;10181;48.072;9.884;2023-07-29T04:48:51;3.40;;;3.20;;
20040;SDS011;10181;48.072;9.884;2023-07-29T04:51:16;2.90;;;2.70;;
20040;SDS011;10181;48.072;9.884;2023-07-29T04:53:42;3.10;;;2.90;;
20040;SDS011;10181;48.072;9.884;2023-07-29T04:56:08;3.30;;;3.10;;
20040;SDS011;10181;48.072;9.884;2023-07-29T04:58:33;2.93;;;2.73;;
20040;SDS011;10181;48.072;9.884;2023-07-29T05:01:00;3.00;;;2.80;;
20040;SDS011;10181;48.072;9.884;2023-07-29T05:03:27;3.53;;;3.13;;
20040;SDS011;10181;48.072;9.884;2023-07-29T05:05:52;3.27;;;3.07;;
20040;SDS011;10181;48.072;9.884;2023-07-29T05:08:20;3.37;;;3.07;;
20040;SDS011;10181;48.072;9.884;2023-07-29T05:10:49;3.40;;;3.20;;
20040;SDS011;10181;48.072;9.884;2023-07-29T05:13:15;3.90;;;3.60;;
20040;SDS011;10181;48.072;9.884;2023-07-29T05:15:41;5.30;;;3.57;;
20040;SDS011;10181;48.072;9.884;2023-07-29T05:18:07;3.33;;;3.07;;
20040;SDS011;10181;48.072;9.884;2023-07-29T05:20:32;3.03;;;2.83;;
20040;SDS011;10181;48.072;9.884;2023-07-29T05:22:58;3.83;;;3.23;;
20040;SDS011;10181;48.072;9.884;2023-07-29T05:25:23;3.53;;;3.27;;
20040;SDS011;10181;48.072;9.884;2023-07-29T05:27:49;3.57;;;3.37;;
20040;SDS011;10181;48.072;9.884;2023-07-29T05:30:15;3.37;;;3.17;;
20040;SDS011;10181;48.072;9.884;2023-07-29T05:32:40;3.87;;;3.40;;
20040;SDS011;10181;48.072;9.884;2023-07-29T05:35:06;4.20;;;3.80;;
20040;SDS011;10181;48.072;9.884;2023-07-29T05:37:32;4.13;;;3.30;;
20040;SDS011;10181;48.072;9.884;2023-07-29T05:39:58;3.23;;;3.03;;
20040;SDS011;10181;48.072;9.884;2023-07-29T05:42:23;3.37;;;3.17;;
20040;SDS011;10181;48.072;9.884;2023-07-29T05:44:49;3.70;;;3.50;;
20040;SDS011;10181;48.072;9.884;2023-07-29T05:47:15;3.87;;;3.53;;
20040;SDS011;10181;48.072;9.884;2023-07-29T05:49:40;3.77;;;3.57;;
20040;SDS011;10181;48.072;9.884;2023-07-29T05:52:06;3.77;;;3.57;;
20040;SDS011;10181;48.072;9.884;2023-07-29T05:54:32;3.80;;;3.60;;
20040;SDS011;10181;48.072;9.884;2023-07-29T05:56:58;3.60;;;3.40;;
20040;SDS011;10181;48.072;9.884;2023-07-29T05:59:23;4.13;;;3.83;;
20040;SDS011;10181;48.072;9.884;2023-07-29T06:01:49;4.00;;;3.70;;
20040;SDS011;10181;48.072;9.884;2023-07-29T06:04:14;4.20;;;3.80;;
20040;SDS011;10181;48.072;9.884;2023-07-29T06:06:40;4.00;;;3.70;;
20040;SDS011;10181;48.072;9.884;2023-07-29T06:09:06;4.40;;;4.00;;
20040;SDS011;10181;48.072;9.884;2023-07-29T06:11:31;4.03;;;3.83;;
20040;SDS011;10181;48.072;9.884;2023-07-29T06:13:57;3.93;;;3.63;;
20040;SDS011;10181;48.072;9.884;2023-07-29T06:16:22;3.80;;;3.60;;
20040;SDS011;10181;48.072;9.884;2023-07-29T06:18:48;3.83;;;3.53;;
20040;SDS011;10181;48.072;9.884;2023-07-29T06:21:14;3.73;;;3.53;;
20040;SDS011;10181;48.072;9.884;2023-07-29T06:23:42;3.37;;;3.17;;
20040;SDS011;10181;48.072;9.884;2023-07-29T06:26:08;3.73;;;3.53;;
20040;SDS011;10181;48.072;9.884;2023-07-29T06:28:34;3.63;;;3.43;;
20040;SDS011;10181;48.072;9.884;2023-07-29T06:31:00;3.90;;;3.60;;
20040;SDS011;10181;48.072;9.884;2023-07-29T06:33:26;3.60;;;3.30;;
20040;SDS011;10181;48.072;9.884;2023-07-29T06:35:51;4.30;;;4.00;;
20040;SDS011;10181;48.072;9.884;2023-07-29T06:38:17;4.70;;;4.30;;
20040;SDS011;10181;48.072;9.884;2023-07-29T06:40:46;4.20;;;4.00;;
20040;SDS011;10181;48.072;9.884;2023-07-29T06:43:13;4.00;;;3.70;;
20040;SDS011;10181;48.072;9.884;2023-07-29T06:45:38;3.67;;;3.37;;
20040;SDS011;10181;48.072;9.884;2023-07-29T06:48:04;4.20;;;3.90;;
20040;SDS011;10181;48.072;9.884;2023-07-29T06:50:30;3.90;;;3.60;;
20040;SDS011;10181;48.072;9.884;2023-07-29T06:52:55;3.87;;;3.57;;
20040;SDS011;10181;48.072;9.884;2023-07-29T06:55:21;3.50;;;3.30;;
20040;SDS011;10181;48.072;9.884;2023-07-29T06:57:46;4.57;;;3.67;;
20040;SDS011;10181;48.072;9.884;2023-07-29T07:00:12;3.70;;;3.50;;
20040;SDS011;10181;48.072;9.884;2023-07-29T07:02:38;3.93;;;3.63;;
20040;SDS011;10181;48.072;9.884;2023-07-29T07:05:04;3.73;;;3.47;;
20040;SDS011;10181;48.072;9.884;2023-07-29T07:07:29;3.53;;;3.23;;
20040;SDS011;10181;48.072;9.884;2023-07-29T07:09:55;3.87;;;3.47;;
20040;SDS011;10181;48.072;9.884;2023-07-29T07:12:21;3.70;;;3.00;;
20040;SDS011;10181;48.072;9.884;2023-07-29T07:14:47;4.40;;;4.00;;
20040;SDS011;10181;48.072;9.884;2023-07-29T07:17:13;3.77;;;3.43;;
20040;SDS011;10181;48.072;9.884;2023-07-29T07:19:42;4.07;;;3.60;;
20040;SDS011;10181;48.072;9.884;2023-07-29T07:22:09;4.03;;;3.60;;
20040;SDS011;10181;48.072;9.884;2023-07-29T07:24:35;3.30;;;3.10;;
20040;SDS011;10181;48.072;9.884;2023-07-29T07:27:01;4.00;;;3.70;;
20040;SDS011;10181;48.072;9.884;2023-07-29T07:29:28;3.40;;;3.20;;
20040;SDS011;10181;48.072;9.884;2023-07-29T07:31:56;4.38;;;3.90;;
20040;SDS011;10181;48.072;9.884;2023-07-29T07:34:25;3.90;;;3.53;;
20040;SDS011;10181;48.072;9.884;2023-07-29T07:36:51;3.92;;;3.53;;
20040;SDS011;10181;48.072;9.884;2023-07-29T07:39:18;3.20;;;3.00;;
20040;SDS011;10181;48.072;9.884;2023-07-29T07:41:44;3.47;;;3.28;;
20040;SDS011;10181;48.072;9.884;2023-07-29T07:44:10;3.63;;;3.33;;
20040;SDS011;10181;48.072;9.884;2023-07-29T07:46:40;3.83;;;3.55;;
20040;SDS011;10181;48.072;9.884;2023-07-29T07:49:07;4.20;;;3.90;;
20040;SDS011;10181;48.072;9.884;2023-07-29T07:51:32;3.53;;;3.22;;
20040;SDS011;10181;48.072;9.884;2023-07-29T07:53:58;3.58;;;3.28;;
20040;SDS011;10181;48.072;9.884;2023-07-29T07:56:23;3.35;;;3.05;;
20040;SDS011;10181;48.072;9.884;2023-07-29T07:58:49;3.60;;;3.40;;
20040;SDS011;10181;48.072;9.884;2023-07-29T08:01:15;3.20;;;3.00;;
20040;SDS011;10181;48.072;9.884;2023-07-29T08:03:40;3.58;;;3.38;;
20040;SDS011;10181;48.072;9.884;2023-07-29T08:06:06;4.43;;;3.30;;
20040;SDS011;10181;48.072;9.884;2023-07-29T08:08:31;3.95;;;3.47;;
20040;SDS011;10181;48.072;9.884;2023-07-29T08:10:57;3.65;;;3.40;;
20040;SDS011;10181;48.072;9.884;2023-07-29T08:13:23;3.80;;;3.50;;
20040;SDS011;10181;48.072;9.884;2023-07-29T08:15:52;3.63;;;3.33;;
20040;SDS011;10181;48.072;9.884;2023-07-29T08:18:18;3.30;;;3.00;;
20040;SDS011;10181;48.072;9.884;2023-07-29T08:20:51;3.58;;;3.38;;
20040;SDS011;10181;48.072;9.884;2023-07-29T08:23:18;3.58;;;3.38;;
20040;SDS011;10181;48.072;9.884;2023-07-29T08:25:44;3.95;;;3.40;;
20040;SDS011;10181;48.072;9.884;2023-07-29T08:28:10;3.60;;;3.30;;
20040;SDS011;10181;48.072;9.884;2023-07-29T08:30:36;3.75;;;3.25;;
20040;SDS011;10181;48.072;9.884;2023-07-29T08:33:01;3.35;;;3.15;;
20040;SDS011;10181;48.072;9.884;2023-07-29T08:35:27;3.72;;;3.53;;
20040;SDS011;10181;48.072;9.884;2023-07-29T08:37:53;3.92;;;3.63;;
20040;SDS011;10181;48.072;9.884;2023-07-29T08:40:18;3.92;;;3.63;;
20040;SDS011;10181;48.072;9.884;2023-07-29T08:42:52;4.60;;;3.72;;
20040;SDS011;10181;48.072;9.884;2023-07-29T08:45:20;3.38;;;3.17;;
20040;SDS011;10181;48.072;9.884;2023-07-29T08:47:46;3.60;;;3.40;;
20040;SDS011;10181;48.072;9.884;2023-07-29T08:50:15;3.67;;;3.38;;
20040;SDS011;10181;48.072;9.884;2023-07-29T08:52:41;3.03;;;2.83;;
20040;SDS011;10181;48.072;9.884;2023-07-29T08:55:09;3.60;;;3.40;;
20040;SDS011;10181;48.072;9.884;2023-07-29T08:57:34;3.33;;;3.13;;
20040;SDS011;10181;48.072;9.884;2023-07-29T09:00:00;3.38;;;3.15;;
20040;SDS011;10181;48.072;9.884;2023-07-29T09:02:27;3.83;;;3.53;;
20040;SDS011;10181;48.072;9.884;2023-07-29T09:04:53;3.58;;;3.28;;
20040;SDS011;10181;48.072;9.884;2023-07-29T09:07:18;3.25;;;3.05;;
20040;SDS011;10181;48.072;9.884;2023-07-29T09:09:45;3.33;;;3.13;;
20040;SDS011;10181;48.072;9.884;2023-07-29T09:12:11;3.75;;;3.45;;
20040;SDS011;10181;48.072;9.884;2023-07-29T09:14:37;3.30;;;3.10;;
20040;SDS011;10181;48.072;9.884;2023-07-29T09:17:02;3.20;;;3.00;;
20040;SDS011;10181;48.072;9.884;2023-07-29T09:19:32;3.22;;;3.03;;
20040;SDS011;10181;48.072;9.884;2023-07-29T09:21:59;3.20;;;3.00;;
20040;SDS011;10181;48.072;9.884;2023-07-29T09:24:24;3.28;;;2.97;;
20040;SDS011;10181;48.072;9.884;2023-07-29T09:26:54;3.70;;;3.40;;
20040;SDS011;10181;48.072;9.884;2023-07-29T09:29:23;3.20;;;3.00;;
20040;SDS011;10181;48.072;9.884;2023-07-29T09:31:52;3.35;;;3.15;;
20040;SDS011;10181;48.072;9.884;2023-07-29T09:34:18;3.35;;;3.15;;
20040;SDS011;10181;48.072;9.884;2023-07-29T09:36:43;3.28;;;3.08;;
20040;SDS011;10181;48.072;9.884;2023-07-29T09:39:12;2.97;;;2.88;;
20040;SDS011;10181;48.072;9.884;2023-07-29T09:41:38;3.38;;;3.10;;
20040;SDS011;10181;48.072;9.884;2023-07-29T09:44:03;3.33;;;3.13;;
20040;SDS011;10181;48.072;9.884;2023-07-29T09:46:34;3.13;;;2.90;;
20040;SDS011;10181;48.072;9.884;2023-07-29T09:49:01;2.88;;;2.72;;
20040;SDS011;10181;48.072;9.884;2023-07-29T09:51:31;3.20;;;3.00;;
20040;SDS011;10181;48.072;9.884;2023-07-29T09:54:02;3.42;;;3.22;;
20040;SDS011;10181;48.072;9.884;2023-07-29T09:56:28;3.42;;;3.20;;
20040;SDS011;10181;48.072;9.884;2023-07-29T09:58:56;3.40;;;3.20;;
20040;SDS011;10181;48.072;9.884;2023-07-29T10:01:22;3.20;;;3.00;;
20040;SDS011;10181;48.072;9.884;2023-07-29T10:03:48;3.28;;;2.97;;
20040;SDS011;10181;48.072;9.884;2023-07-29T10:06:14;3.08;;;2.83;;
20040;SDS011;10181;48.072;9.884;2023-07-29T10:08:40;3.30;;;3.10;;
20040;SDS011;10181;48.072;9.884;2023-07-29T10:11:08;2.90;;;2.80;;
20040;SDS011;10181;48.072;9.884;2023-07-29T10:13:36;2.75;;;2.60;;
20040;SDS011;10181;48.072;9.884;2023-07-29T10:16:02;2.95;;;2.75;;
20040;SDS011;10181;48.072;9.884;2023-07-29T10:18:30;3.10;;;2.90;;
20040;SDS011;10181;48.072;9.884;2023-07-29T10:20:57;3.40;;;3.10;;
20040;SDS011;10181;48.072;9.884;2023-07-29T10:23:24;2.80;;;2.60;;
20040;SDS011;10181;48.072;9.884;2023-07-29T10:25:56;3.08;;;2.80;;
20040;SDS011;10181;48.072;9.884;2023-07-29T10:28:28;2.90;;;2.70;;
20040;SDS011;10181;48.072;9.884;2023-07-29T10:30:56;2.97;;;2.67;;
20040;SDS011;10181;48.072;9.884;2023-07-29T10:33:22;2.78;;;2.58;;
20040;SDS011;10181;48.072;9.884;2023-07-29T10:35:48;2.97;;;2.78;;
20040;SDS011;10181;48.072;9.884;2023-07-29T10:38:15;2.60;;;2.50;;
20040;SDS011;10181;48.072;9.884;2023-07-29T10:40:59;2.88;;;2.40;;
20040;SDS011;10181;48.072;9.884;2023-07-29T10:43:26;2.53;;;2.42;;
20040;SDS011;10181;48.072;9.884;2023-07-29T10:46:14;2.60;;;2.50;;
20040;SDS011;10181;48.072;9.884;2023-07-29T10:51:28;2.55;;;2.35;;
20040;SDS011;10181;48.072;9.884;2023-07-29T10:54:02;2.50;;;2.40;;
20040;SDS011;10181;48.072;9.884;2023-07-29T10:56:32;2.85;;;2.65;;
20040;SDS011;10181;48.072;9.884;2023-07-29T10:59:02;2.53;;;2.33;;
20040;SDS011;10181;48.072;9.884;2023-07-29T11:01:52;2.58;;;2.38;;
20040;SDS011;10181;48.072;9.884;2023-07-29T11:04:25;2.53;;;2.33;;
20040;SDS011;10181;48.072;9.884;2023-07-29T11:17:36;2.25;;;2.15;;
20040;SDS011;10181;48.072;9.884;2023-07-29T11:20:04;2.20;;;2.10;;
20040;SDS011;10181;48.072;9.884;2023-07-29T11:22:32;2.50;;;2.30;;
20040;SDS011;10181;48.072;9.884;2023-07-29T11:24:59;2.40;;;2.30;;
20040;SDS011;10181;48.072;9.884;2023-07-29T11:27:24;3.38;;;2.40;;
20040;SDS011;10181;48.072;9.884;2023-07-29T11:29:50;2.10;;;2.00;;
20040;SDS011;10181;48.072;9.884;2023-07-29T11:32:21;2.10;;;2.00;;
20040;SDS011;10181;48.072;9.884;2023-07-29T11:34:47;2.05;;;1.95;;
20040;SDS011;10181;48.072;9.884;2023-07-29T11:37:12;2.10;;;2.00;;
20040;SDS011;10181;48.072;9.884;2023-07-29T11:39:41;3.03;;;2.10;;
20040;SDS011;10181;48.072;9.884;2023-07-29T11:42:10;2.10;;;2.00;;
20040;SDS011;10181;48.072;9.884;2023-07-29T11:44:37;2.35;;;2.25;;
20040;SDS011;10181;48.072;9.884;2023-07-29T11:47:06;2.22;;;2.13;;
20040;SDS011;10181;48.072;9.884;2023-07-29T11:49:38;3.30;;;2.55;;
20040;SDS011;10181;48.072;9.884;2023-07-29T11:52:06;3.38;;;2.80;;
20040;SDS011;10181;48.072;9.884;2023-07-29T11:54:34;2.95;;;2.75;;
20040;SDS011;10181;48.072;9.884;2023-07-29T11:57:06;3.58;;;2.88;;
20040;SDS011;10181;48.072;9.884;2023-07-29T11:59:33;3.30;;;3.10;;
20040;SDS011;10181;48.072;9.884;2023-07-29T12:02:10;2.95;;;2.75;;
20040;SDS011;10181;48.072;9.884;2023-07-29T12:04:37;3.08;;;2.22;;
20040;SDS011;10181;48.072;9.884;2023-07-29T12:07:04;3.33;;;3.00;;
20040;SDS011;10181;48.072;9.884;2023-07-29T12:09:30;2.88;;;2.67;;
20040;SDS011;10181;48.072;9.884;2023-07-29T12:11:56;2.80;;;2.60;;
20040;SDS011;10181;48.072;9.884;2023-07-29T12:14:25;2.10;;;2.00;;
20040;SDS011;10181;48.072;9.884;2023-07-29T12:16:53;2.38;;;2.17;;
20040;SDS011;10181;48.072;9.884;2023-07-29T12:19:18;2.60;;;2.40;;
20040;SDS011;10181;48.072;9.884;2023-07-29T12:21:44;3.10;;;2.80;;
20040;SDS011;10181;48.072;9.884;2023-07-29T12:24:13;2.53;;;2.42;;
20040;SDS011;10181;48.072;9.884;2023-07-29T12:26:39;1.98;;;1.88;;
20040;SDS011;10181;48.072;9.884;2023-07-29T12:29:11;2.33;;;2.22;;
20040;SDS011;10181;48.072;9.884;2023-07-29T12:31:41;2.10;;;2.00;;
20040;SDS011;10181;48.072;9.884;2023-07-29T12:34:07;3.13;;;2.20;;
20040;SDS011;10181;48.072;9.884;2023-07-29T12:36:41;2.65;;;2.15;;
20040;SDS011;10181;48.072;9.884;2023-07-29T12:41:58;1.95;;;1.85;;
20040;SDS011;10181;48.072;9.884;2023-07-29T12:44:25;2.15;;;2.05;;
20040;SDS011;10181;48.072;9.884;2023-07-29T12:46:54;2.03;;;1.92;;
20040;SDS011;10181;48.072;9.884;2023-07-29T12:49:20;1.95;;;1.83;;
20040;SDS011;10181;48.072;9.884;2023-07-29T12:51:46;1.80;;;1.70;;
20040;SDS011;10181;48.072;9.884;2023-07-29T12:54:11;2.13;;;1.92;;
20040;SDS011;10181;48.072;9.884;2023-07-29T12:56:37;1.85;;;1.75;;
20040;SDS011;10181;48.072;9.884;2023-07-29T12:59:02;2.45;;;1.77;;
20040;SDS011;10181;48.072;9.884;2023-07-29T13:01:29;1.95;;;1.85;;
20040;SDS011;10181;48.072;9.884;2023-07-29T13:03:55;1.77;;;1.67;;
20040;SDS011;10181;48.072;9.884;2023-07-29T13:06:21;1.45;;;1.45;;
20040;SDS011;10181;48.072;9.884;2023-07-29T13:08:47;1.60;;;1.50;;
20040;SDS011;10181;48.072;9.884;2023-07-29T13:11:16;1.80;;;1.70;;
20040;SDS011;10181;48.072;9.884;2023-07-29T13:13:43;1.80;;;1.70;;
20040;SDS011;10181;48.072;9.884;2023-07-29T13:16:10;3.75;;;1.60;;
20040;SDS011;10181;48.072;9.884;2023-07-29T13:18:36;1.65;;;1.55;;
20040;SDS011;10181;48.072;9.884;2023-07-29T13:21:02;2.17;;;1.70;;
20040;SDS011;10181;48.072;9.884;2023-07-29T13:23:28;1.90;;;1.80;;
20040;SDS011;10181;48.072;9.884;2023-07-29T13:25:54;1.80;;;1.70;;
20040;SDS011;10181;48.072;9.884;2023-07-29T13:28:20;1.85;;;1.75;;
20040;SDS011;10181;48.072;9.884;2023-07-29T13:30:46;2.15;;;2.05;;
20040;SDS011;10181;48.072;9.884;2023-07-29T13:33:12;1.60;;;1.60;;
20040;SDS011;10181;48.072;9.884;2023-07-29T13:35:37;2.03;;;1.92;;
20040;SDS011;10181;48.072;9.884;2023-07-29T13:38:03;2.05;;;1.95;;
20040;SDS011;10181;48.072;9.884;2023-07-29T13:40:29;1.83;;;1.73;;
20040;SDS011;10181;48.072;9.884;2023-07-29T13:42:54;2.13;;;2.03;;
20040;SDS011;10181;48.072;9.884;2023-07-29T13:45:20;2.60;;;2.40;;
20040;SDS011;10181;48.072;9.884;2023-07-29T13:47:47;2.30;;;2.10;;
20040;SDS011;10181;48.072;9.884;2023-07-29T13:50:13;2.30;;;2.10;;
20040;SDS011;10181;48.072;9.884;2023-07-29T13:52:39;1.80;;;1.70;;
20040;SDS011;10181;48.072;9.884;2023-07-29T13:55:04;2.58;;;2.38;;
20040;SDS011;10181;48.072;9.884;2023-07-29T13:57:31;2.20;;;2.00;;
20040;SDS011;10181;48.072;9.884;2023-07-29T13:59:57;2.30;;;2.10;;
20040;SDS011;10181;48.072;9.884;2023-07-29T14:02:23;2.67;;;2.50;;
20040;SDS011;10181;48.072;9.884;2023-07-29T14:04:51;2.03;;;1.92;;
20040;SDS011;10181;48.072;9.884;2023-07-29T14:07:17;2.75;;;2.55;;
20040;SDS011;10181;48.072;9.884;2023-07-29T14:09:42;2.17;;;2.08;;
20040;SDS011;10181;48.072;9.884;2023-07-29T14:12:08;2.97;;;2.78;;
20040;SDS011;10181;48.072;9.884;2023-07-29T14:14:39;3.95;;;2.20;;
20040;SDS011;10181;48.072;9.884;2023-07-29T14:17:05;2.10;;;2.00;;
20040;SDS011;10181;48.072;9.884;2023-07-29T14:19:32;2.40;;;2.20;;
20040;SDS011;10181;48.072;9.884;2023-07-29T14:21:58;2.00;;;1.90;;
20040;SDS011;10181;48.072;9.884;2023-07-29T14:24:24;2.38;;;2.22;;
20040;SDS011;10181;48.072;9.884;2023-07-29T14:26:49;2.25;;;2.15;;
20040;SDS011;10181;48.072;9.884;2023-07-29T14:29:15;2.20;;;2.10;;
20040;SDS011;10181;48.072;9.884;2023-07-29T14:31:40;1.77;;;1.70;;
20040;SDS011;10181;48.072;9.884;2023-07-29T14:34:06;2.50;;;2.40;;
20040;SDS011;10181;48.072;9.884;2023-07-29T14:36:32;2.15;;;2.05;;
20040;SDS011;10181;48.072;9.884;2023-07-29T14:38:57;2.10;;;1.98;;
20040;SDS011;10181;48.072;9.884;2023-07-29T14:41:23;2.30;;;2.20;;
20040;SDS011;10181;48.072;9.884;2023-07-29T14:43:49;2.25;;;2.05;;
20040;SDS011;10181;48.072;9.884;2023-07-29T14:46:14;2.30;;;2.13;;
20040;SDS011;10181;48.072;9.884;2023-07-29T14:48:40;2.83;;;2.53;;
20040;SDS011;10181;48.072;9.884;2023-07-29T14:51:05;2.17;;;2.08;;
20040;SDS011;10181;48.072;9.884;2023-07-29T14:53:31;2.53;;;2.33;;
20040;SDS011;10181;48.072;9.884;2023-07-29T14:55:57;2.22;;;2.13;;
20040;SDS011;10181;48.072;9.884;2023-07-29T14:58:22;1.90;;;1.80;;
20040;SDS011;10181;48.072;9.884;2023-07-29T15:00:50;2.28;;;2.17;;
20040;SDS011;10181;48.072;9.884;2023-07-29T15:03:16;2.22;;;2.13;;
20040;SDS011;10181;48.072;9.884;2023-07-29T15:05:42;2.30;;;2.20;;
20040;SDS011;10181;48.072;9.884;2023-07-29T15:08:07;2.38;;;2.28;;